Time;durP1;ratioP1;P1;durP2;ratioP2;P2;SDS_P1;SDS_P2;PMS_P1;PMS_P2;Temp;Humidity;BMP_temperature;BMP_pressure;BME280_temperature;BME280_humidity;BME280_pressure;Samples;Min_cycle;Max_cycle;Signal;HPM_P1;HPM_P2
2021/04/27 00:00:22;;;;;;;10.60;9.13;;;;;;;;;;5025143;28;20447;-96
2021/04/27 00:02:48;;;;;;;11.40;9.17;;;;;;;;;;5041977;28;20457;-96
2021/04/27 00:05:15;;;;;;;14.20;8.50;;;;;;;;;;5039525;28;20452;-96
2021/04/27 00:07:41;;;;;;;11.40;10.10;;;;;;;;;;5029647;28;20460;-95
2021/04/27 00:10:09;;;;;;;10.43;9.33;;;;;;;;;;5048505;28;20439;-95
2021/04/27 00:12:35;;;;;;;11.30;8.60;;;;;;;;;;5035772;28;20467;-94
2021/04/27 00:15:06;;;;;;;11.73;9.03;;;;;;;;;;5040301;28;20447;-96
2021/04/27 00:17:32;;;;;;;11.43;9.47;;;;;;;;;;5036918;28;20530;-96
2021/04/27 00:19:58;;;;;;;9.40;8.50;;;;;;;;;;5032328;28;20447;-96
2021/04/27 00:22:24;;;;;;;13.10;8.63;;;;;;;;;;5028942;28;20444;-96
2021/04/27 00:24:50;;;;;;;10.20;9.13;;;;;;;;;;5032604;28;20510;-94
2021/04/27 00:27:16;;;;;;;10.77;9.03;;;;;;;;;;5037444;28;20479;-93
2021/04/27 00:29:42;;;;;;;12.07;10.03;;;;;;;;;;5017416;28;21033;-93
2021/04/27 00:32:09;;;;;;;11.60;8.53;;;;;;;;;;5014181;28;20450;-94
2021/04/27 00:34:35;;;;;;;13.07;8.80;;;;;;;;;;5025344;28;20506;-95
2021/04/27 00:37:01;;;;;;;9.97;8.90;;;;;;;;;;5033376;28;20466;-96
2021/04/27 00:39:30;;;;;;;13.77;9.07;;;;;;;;;;5025068;28;20455;-95
2021/04/27 00:41:56;;;;;;;9.53;8.50;;;;;;;;;;5035399;28;20456;-91
2021/04/27 00:44:22;;;;;;;9.13;8.10;;;;;;;;;;5027028;28;20481;-95
2021/04/27 00:46:50;;;;;;;10.57;9.00;;;;;;;;;;5036915;28;20450;-96
2021/04/27 00:49:19;;;;;;;9.43;7.87;;;;;;;;;;5035489;28;20819;-96
2021/04/27 00:51:45;;;;;;;9.93;8.27;;;;;;;;;;5039004;28;20444;-92
2021/04/27 00:54:11;;;;;;;9.70;8.50;;;;;;;;;;5034145;28;20486;-93
2021/04/27 00:56:37;;;;;;;12.93;8.07;;;;;;;;;;5032944;28;20490;-96
2021/04/27 00:59:03;;;;;;;9.03;8.13;;;;;;;;;;5026631;28;20448;-95
2021/04/27 01:01:30;;;;;;;9.00;7.90;;;;;;;;;;5030303;28;20462;-96
2021/04/27 01:03:57;;;;;;;9.60;8.07;;;;;;;;;;5023429;28;20451;-96
2021/04/27 01:06:24;;;;;;;11.43;8.10;;;;;;;;;;5029924;28;20447;-96
2021/04/27 01:08:55;;;;;;;9.40;8.37;;;;;;;;;;5036516;28;20454;-95
2021/04/27 01:11:27;;;;;;;9.70;8.60;;;;;;;;;;5036554;28;20454;-94
2021/04/27 01:13:57;;;;;;;13.10;8.03;;;;;;;;;;5029333;28;20490;-93
2021/04/27 01:16:24;;;;;;;9.30;8.10;;;;;;;;;;5019819;28;21010;-92
2021/04/27 01:18:51;;;;;;;9.80;8.80;;;;;;;;;;5035091;28;20536;-93
2021/04/27 01:21:18;;;;;;;11.70;9.10;;;;;;;;;;5048138;28;20451;-94
2021/04/27 01:24:02;;;;;;;10.30;8.57;;;;;;;;;;5039313;28;20440;-92
2021/04/27 01:26:31;;;;;;;11.97;7.53;;;;;;;;;;5022423;28;20478;-92
2021/04/27 01:28:57;;;;;;;10.30;8.37;;;;;;;;;;5033561;28;20490;-92
2021/04/27 01:31:24;;;;;;;9.73;8.30;;;;;;;;;;5036203;28;20477;-92
2021/04/27 01:33:50;;;;;;;14.27;8.77;;;;;;;;;;5034560;28;20482;-91
2021/04/27 01:36:16;;;;;;;10.23;9.20;;;;;;;;;;5035602;28;20447;-94
2021/04/27 01:38:43;;;;;;;10.27;8.30;;;;;;;;;;5036592;28;20455;-92
2021/04/27 01:41:09;;;;;;;9.10;8.03;;;;;;;;;;5027162;28;20934;-94
2021/04/27 01:43:36;;;;;;;12.73;8.53;;;;;;;;;;5045516;28;20464;-95
2021/04/27 01:46:04;;;;;;;14.30;9.43;;;;;;;;;;5030753;28;20451;-96
2021/04/27 01:48:33;;;;;;;11.07;9.43;;;;;;;;;;5042531;28;20424;-96
2021/04/27 01:51:04;;;;;;;9.73;8.73;;;;;;;;;;5036636;28;20427;-96
2021/04/27 01:53:30;;;;;;;10.13;9.00;;;;;;;;;;5042364;28;20614;-96
2021/04/27 01:55:57;;;;;;;12.73;10.40;;;;;;;;;;5039923;28;20459;-95
2021/04/27 01:58:23;;;;;;;11.80;9.27;;;;;;;;;;5053679;28;20452;-95
2021/04/27 02:00:51;;;;;;;10.90;9.80;;;;;;;;;;5029599;28;20459;-96
2021/04/27 02:03:17;;;;;;;15.17;9.50;;;;;;;;;;5030751;28;20451;-96
2021/04/27 02:05:43;;;;;;;11.50;8.77;;;;;;;;;;5039164;28;20442;-96
2021/04/27 02:08:09;;;;;;;11.17;9.03;;;;;;;;;;5036973;28;20456;-96
2021/04/27 02:10:36;;;;;;;11.90;9.83;;;;;;;;;;5024180;28;20464;-96
2021/04/27 02:13:04;;;;;;;10.87;9.77;;;;;;;;;;5018014;28;20486;-96
2021/04/27 02:15:31;;;;;;;10.10;9.10;;;;;;;;;;5017866;28;20459;-96
2021/04/27 02:20:59;;;;;;;11.80;9.07;;;;;;;;;;5045417;28;20472;-96
2021/04/27 02:23:25;;;;;;;14.87;10.77;;;;;;;;;;5016986;28;20456;-96
2021/04/27 02:25:53;;;;;;;13.80;9.47;;;;;;;;;;5042313;28;20455;-96
2021/04/27 02:28:31;;;;;;;13.17;9.80;;;;;;;;;;5051829;28;20457;-96
2021/04/27 02:30:58;;;;;;;11.10;9.83;;;;;;;;;;5028506;28;20496;-96
2021/04/27 02:33:26;;;;;;;12.40;9.77;;;;;;;;;;5029460;28;20479;-96
2021/04/27 02:35:53;;;;;;;11.53;10.37;;;;;;;;;;5017959;28;20447;-96
2021/04/27 02:41:35;;;;;;;11.63;9.87;;;;;;;;;;5062051;23;20499;-96
2021/04/27 02:44:04;;;;;;;12.00;9.60;;;;;;;;;;5067140;28;20443;-96
2021/04/27 02:46:30;;;;;;;10.73;9.63;;;;;;;;;;5070554;28;20868;-96
2021/04/27 02:48:57;;;;;;;10.53;9.43;;;;;;;;;;5066648;28;20456;-95
2021/04/27 03:11:30;;;;;;;12.93;9.10;;;;;;;;;;5076775;28;20460;-96
2021/04/27 03:14:09;;;;;;;11.57;10.40;;;;;;;;;;5069405;28;20471;-96
2021/04/27 03:16:35;;;;;;;12.30;9.87;;;;;;;;;;5060666;28;20449;-96
2021/04/27 03:19:06;;;;;;;12.30;11.00;;;;;;;;;;5071814;28;20465;-96
2021/04/27 03:21:33;;;;;;;12.30;10.50;;;;;;;;;;5062669;28;20485;-93
2021/04/27 03:23:59;;;;;;;11.97;10.00;;;;;;;;;;5060596;28;20464;-96
2021/04/27 03:26:25;;;;;;;14.10;11.30;;;;;;;;;;5062359;28;20465;-95
2021/04/27 03:28:51;;;;;;;14.40;12.33;;;;;;;;;;5061435;28;20446;-95
2021/04/27 03:31:17;;;;;;;17.13;13.13;;;;;;;;;;5062371;28;20464;-95
2021/04/27 03:33:43;;;;;;;17.70;13.30;;;;;;;;;;5062950;28;20536;-96
2021/04/27 03:36:09;;;;;;;15.20;13.60;;;;;;;;;;5062156;28;20454;-96
2021/04/27 03:38:36;;;;;;;19.83;13.10;;;;;;;;;;5066966;28;20453;-96
2021/04/27 03:41:02;;;;;;;13.37;11.50;;;;;;;;;;5072447;28;20562;-96
2021/04/27 03:43:28;;;;;;;17.57;12.73;;;;;;;;;;5072007;28;20454;-96
2021/04/27 03:45:55;;;;;;;13.67;10.40;;;;;;;;;;5059994;28;20688;-96
2021/04/27 03:48:21;;;;;;;13.43;10.07;;;;;;;;;;5064806;28;20459;-96
2021/04/27 03:50:48;;;;;;;11.53;9.50;;;;;;;;;;5058798;28;20474;-96
2021/04/27 03:53:14;;;;;;;13.17;9.80;;;;;;;;;;5061845;28;21049;-96
2021/04/27 03:55:41;;;;;;;12.77;10.53;;;;;;;;;;5061036;28;20465;-96
2021/04/27 03:58:07;;;;;;;12.90;11.27;;;;;;;;;;5063999;28;20462;-96
2021/04/27 04:00:36;;;;;;;12.63;11.33;;;;;;;;;;5074744;28;20430;-97
2021/04/27 04:05:56;;;;;;;13.10;10.33;;;;;;;;;;5061352;28;20494;-96
2021/04/27 04:08:23;;;;;;;10.97;9.60;;;;;;;;;;5063112;28;20509;-96
2021/04/27 04:10:49;;;;;;;11.00;9.53;;;;;;;;;;5059450;28;20980;-96
2021/04/27 04:13:15;;;;;;;12.97;9.87;;;;;;;;;;5068044;28;20463;-96
2021/04/27 04:15:41;;;;;;;16.13;12.23;;;;;;;;;;5071007;28;20452;-96
2021/04/27 04:18:08;;;;;;;15.07;12.63;;;;;;;;;;5061729;28;20441;-96
2021/04/27 04:20:34;;;;;;;17.07;11.27;;;;;;;;;;5062365;28;20450;-94
2021/04/27 04:23:00;;;;;;;14.60;11.97;;;;;;;;;;5059730;28;20454;-96
2021/04/27 04:25:26;;;;;;;9.90;8.63;;;;;;;;;;5067887;28;20469;-96
2021/04/27 04:27:54;;;;;;;9.90;8.40;;;;;;;;;;5053770;28;20462;-94
2021/04/27 04:30:21;;;;;;;9.90;8.87;;;;;;;;;;5063054;28;20454;-95
2021/04/27 04:32:47;;;;;;;10.43;9.17;;;;;;;;;;5061223;28;20445;-96
2021/04/27 04:35:22;;;;;;;10.87;9.33;;;;;;;;;;5068892;28;20497;-96
2021/04/27 04:40:24;;;;;;;11.10;8.30;;;;;;;;;;5847578;23;20467;-96
2021/04/27 04:42:52;;;;;;;9.80;8.63;;;;;;;;;;5038634;28;20447;-96
2021/04/27 04:45:19;;;;;;;10.97;8.00;;;;;;;;;;5046763;28;20439;-96
2021/04/27 04:47:48;;;;;;;11.53;8.57;;;;;;;;;;5051664;28;20447;-96
2021/04/27 04:50:15;;;;;;;9.03;7.97;;;;;;;;;;5056024;28;20478;-91
2021/04/27 04:52:42;;;;;;;11.80;8.60;;;;;;;;;;5059499;28;20433;-92
2021/04/27 05:01:02;;;;;;;13.37;9.80;;;;;;;;;;5114717;22;20470;-95
2021/04/27 05:03:29;;;;;;;10.60;7.70;;;;;;;;;;5057987;28;20444;-96
2021/04/27 05:05:55;;;;;;;10.20;7.87;;;;;;;;;;5068771;28;20451;-96
2021/04/27 05:08:23;;;;;;;10.90;7.97;;;;;;;;;;5045191;28;20453;-95
2021/04/27 05:10:49;;;;;;;8.03;7.23;;;;;;;;;;5055948;28;20524;-96
2021/04/27 05:13:15;;;;;;;7.77;6.97;;;;;;;;;;5226528;23;20461;-92
2021/04/27 05:15:41;;;;;;;8.67;7.53;;;;;;;;;;5162157;22;20491;-94
2021/04/27 05:18:16;;;;;;;10.80;7.63;;;;;;;;;;5055749;28;20438;-95
2021/04/27 05:20:45;;;;;;;8.73;7.47;;;;;;;;;;5057667;28;20470;-96
2021/04/27 05:23:11;;;;;;;8.33;7.53;;;;;;;;;;5050735;28;20475;-94
2021/04/27 05:25:37;;;;;;;8.53;7.33;;;;;;;;;;5051036;28;20451;-96
2021/04/27 05:28:03;;;;;;;10.63;8.00;;;;;;;;;;5046320;28;20951;-96
2021/04/27 05:30:30;;;;;;;11.30;8.33;;;;;;;;;;5041168;28;20478;-95
2021/04/27 05:32:56;;;;;;;9.93;8.50;;;;;;;;;;5042346;28;20450;-96
2021/04/27 05:38:32;;;;;;;10.70;8.87;;;;;;;;;;5052073;28;20537;-96
2021/04/27 05:46:41;;;;;;;9.40;7.00;;;;;;;;;;5076678;22;20504;-96
2021/04/27 05:49:09;;;;;;;8.13;7.33;;;;;;;;;;5066331;28;20465;-96
2021/04/27 05:51:40;;;;;;;11.53;8.10;;;;;;;;;;5074143;28;20422;-96
2021/04/27 05:54:24;;;;;;;12.80;7.90;;;;;;;;;;5057057;28;20493;-96
2021/04/27 06:02:23;;;;;;;8.13;7.30;;;;;;;;;;5197750;22;20500;-96
2021/04/27 06:04:49;;;;;;;7.73;7.00;;;;;;;;;;5074962;28;20446;-96
2021/04/27 06:07:15;;;;;;;8.60;7.13;;;;;;;;;;5069661;28;20454;-96
2021/04/27 06:09:55;;;;;;;7.80;7.00;;;;;;;;;;5072863;28;20521;-96
2021/04/27 06:12:40;;;;;;;7.97;7.17;;;;;;;;;;5067888;28;20441;-96
2021/04/27 06:15:18;;;;;;;7.33;6.63;;;;;;;;;;5070790;28;20576;-96
2021/04/27 06:17:46;;;;;;;5.80;5.30;;;;;;;;;;5071757;28;20437;-96
2021/04/27 06:20:14;;;;;;;11.43;6.20;;;;;;;;;;5072671;28;21188;-94
2021/04/27 06:22:40;;;;;;;6.37;5.67;;;;;;;;;;5066860;28;20461;-95
2021/04/27 06:25:10;;;;;;;15.23;5.50;;;;;;;;;;5068694;28;20450;-96
2021/04/27 06:27:39;;;;;;;5.67;4.63;;;;;;;;;;5073738;28;20989;-96
2021/04/27 06:30:06;;;;;;;5.60;5.10;;;;;;;;;;5051023;28;20617;-95
2021/04/27 06:32:32;;;;;;;5.60;5.10;;;;;;;;;;5063097;28;20930;-93
2021/04/27 06:34:58;;;;;;;5.60;4.67;;;;;;;;;;5069417;28;20505;-93
2021/04/27 06:37:24;;;;;;;5.90;5.40;;;;;;;;;;5071260;28;20454;-93
2021/04/27 06:40:01;;;;;;;6.93;4.60;;;;;;;;;;5067218;28;20438;-96
2021/04/27 06:42:33;;;;;;;8.53;4.93;;;;;;;;;;5064340;28;20511;-96
2021/04/27 06:45:00;;;;;;;5.70;4.73;;;;;;;;;;5133532;22;20494;-96
2021/04/27 06:47:29;;;;;;;6.23;4.83;;;;;;;;;;5131313;28;20448;-96
2021/04/27 06:49:57;;;;;;;5.80;5.27;;;;;;;;;;5129750;28;20460;-94
2021/04/27 06:52:24;;;;;;;5.37;4.40;;;;;;;;;;5130479;28;20454;-96
2021/04/27 06:54:50;;;;;;;4.63;4.20;;;;;;;;;;5127516;28;20490;-96
2021/04/27 06:57:19;;;;;;;5.50;5.00;;;;;;;;;;5132137;28;20541;-95
2021/04/27 06:59:47;;;;;;;4.60;4.20;;;;;;;;;;5129450;28;20451;-96
2021/04/27 07:02:24;;;;;;;5.47;4.97;;;;;;;;;;5129881;28;20462;-96
2021/04/27 07:04:50;;;;;;;4.87;4.47;;;;;;;;;;5135874;28;20888;-96
2021/04/27 07:07:17;;;;;;;5.10;4.70;;;;;;;;;;5133217;28;20471;-93
2021/04/27 07:09:45;;;;;;;5.73;4.73;;;;;;;;;;5111164;28;20440;-95
2021/04/27 07:12:12;;;;;;;5.50;4.67;;;;;;;;;;5130129;28;20447;-96
2021/04/27 07:14:38;;;;;;;5.30;4.80;;;;;;;;;;5131959;28;20520;-94
2021/04/27 07:17:22;;;;;;;5.40;4.90;;;;;;;;;;5133034;28;20443;-96
2021/04/27 07:19:49;;;;;;;5.80;5.20;;;;;;;;;;5123742;28;20452;-96
2021/04/27 07:22:15;;;;;;;5.13;4.50;;;;;;;;;;5126818;28;20493;-95
2021/04/27 07:24:41;;;;;;;5.57;4.80;;;;;;;;;;5127415;28;21392;-95
2021/04/27 07:27:07;;;;;;;6.57;5.20;;;;;;;;;;5131667;28;20496;-96
2021/04/27 07:29:33;;;;;;;4.87;4.23;;;;;;;;;;5133727;28;20950;-96
2021/04/27 07:32:00;;;;;;;4.57;4.17;;;;;;;;;;5133750;28;20435;-96
2021/04/27 07:34:30;;;;;;;4.77;4.37;;;;;;;;;;5132717;27;20475;-96
2021/04/27 07:36:57;;;;;;;5.20;4.70;;;;;;;;;;5133262;27;20446;-96
2021/04/27 07:39:23;;;;;;;4.97;4.50;;;;;;;;;;5131670;28;20432;-96
2021/04/27 07:41:50;;;;;;;5.03;4.47;;;;;;;;;;5129054;28;20450;-96
2021/04/27 07:44:16;;;;;;;5.63;4.63;;;;;;;;;;5129892;28;20483;-95
2021/04/27 07:46:43;;;;;;;5.07;4.53;;;;;;;;;;5126014;28;20452;-95
2021/04/27 07:49:12;;;;;;;4.60;4.23;;;;;;;;;;5128044;28;20473;-96
2021/04/27 07:51:40;;;;;;;4.43;4.10;;;;;;;;;;5126763;28;20887;-96
2021/04/27 07:54:07;;;;;;;4.43;4.03;;;;;;;;;;5126777;28;20472;-95
2021/04/27 07:56:33;;;;;;;4.80;4.40;;;;;;;;;;5127334;28;20454;-94
2021/04/27 07:59:00;;;;;;;6.10;4.10;;;;;;;;;;5129568;28;20857;-95
2021/04/27 08:01:37;;;;;;;6.47;4.50;;;;;;;;;;5127291;28;20458;-96
2021/04/27 08:04:13;;;;;;;5.97;4.43;;;;;;;;;;5102984;22;20513;-96
2021/04/27 08:06:42;;;;;;;4.83;4.37;;;;;;;;;;5048141;28;20450;-93
2021/04/27 08:09:10;;;;;;;4.47;4.07;;;;;;;;;;5068137;28;20460;-96
2021/04/27 08:11:37;;;;;;;5.53;5.07;;;;;;;;;;5057121;28;20458;-94
2021/04/27 08:14:05;;;;;;;4.77;4.47;;;;;;;;;;5059198;28;20474;-96
2021/04/27 08:16:31;;;;;;;5.77;4.17;;;;;;;;;;5057454;28;20451;-94
2021/04/27 08:18:57;;;;;;;5.20;4.70;;;;;;;;;;5050345;28;20718;-96
2021/04/27 08:21:26;;;;;;;4.87;4.17;;;;;;;;;;5059173;28;20520;-96
2021/04/27 08:23:54;;;;;;;4.27;3.87;;;;;;;;;;5055180;28;20534;-96
2021/04/27 08:26:20;;;;;;;4.47;4.13;;;;;;;;;;5058177;28;20457;-96
2021/04/27 08:28:46;;;;;;;6.13;4.17;;;;;;;;;;5047499;28;20439;-95
2021/04/27 08:31:12;;;;;;;5.00;4.17;;;;;;;;;;5040242;28;20461;-95
2021/04/27 08:33:38;;;;;;;4.03;3.73;;;;;;;;;;5056563;28;20492;-94
2021/04/27 08:36:06;;;;;;;4.97;4.30;;;;;;;;;;5058668;28;20452;-96
2021/04/27 08:38:32;;;;;;;4.40;4.00;;;;;;;;;;5067643;28;20523;-95
2021/04/27 08:44:10;;;;;;;4.27;3.97;;;;;;;;;;5062209;28;20449;-96
2021/04/27 08:46:36;;;;;;;4.07;3.67;;;;;;;;;;5044371;28;20466;-96
2021/04/27 08:49:02;;;;;;;4.90;4.40;;;;;;;;;;5057628;28;20804;-96
2021/04/27 08:51:28;;;;;;;5.97;4.00;;;;;;;;;;5060924;28;20446;-96
2021/04/27 08:53:54;;;;;;;4.40;4.00;;;;;;;;;;5060255;28;20506;-96
2021/04/27 08:56:26;;;;;;;4.30;4.00;;;;;;;;;;5063252;28;20438;-96
2021/04/27 08:58:54;;;;;;;4.77;4.23;;;;;;;;;;5060249;28;20447;-94
2021/04/27 09:03:59;;;;;;;5.33;3.97;;;;;;;;;;5037843;26;20463;-95
2021/04/27 09:06:26;;;;;;;6.70;3.90;;;;;;;;;;5096520;28;20515;-96
2021/04/27 09:08:58;;;;;;;4.37;3.97;;;;;;;;;;5087149;28;20453;-95
2021/04/27 09:11:30;;;;;;;4.20;3.80;;;;;;;;;;5150307;22;20508;-95
2021/04/27 09:14:14;;;;;;;4.37;4.00;;;;;;;;;;5088094;28;20492;-94
2021/04/27 09:16:44;;;;;;;4.13;3.83;;;;;;;;;;5089169;28;20442;-96
2021/04/27 09:19:11;;;;;;;4.80;4.40;;;;;;;;;;5087296;28;20464;-96
2021/04/27 09:21:39;;;;;;;4.43;4.07;;;;;;;;;;5091360;28;20453;-95
2021/04/27 09:24:15;;;;;;;5.80;3.83;;;;;;;;;;5071955;28;20476;-96
2021/04/27 09:26:42;;;;;;;4.23;3.80;;;;;;;;;;5091234;28;20451;-96
2021/04/27 09:29:10;;;;;;;5.03;3.57;;;;;;;;;;5089493;28;20452;-95
2021/04/27 09:31:37;;;;;;;4.27;3.97;;;;;;;;;;5092162;28;20432;-96
2021/04/27 09:34:22;;;;;;;4.93;3.90;;;;;;;;;;5090674;28;20492;-93
2021/04/27 09:36:49;;;;;;;4.00;3.70;;;;;;;;;;5090514;28;20445;-94
2021/04/27 09:39:16;;;;;;;4.17;3.77;;;;;;;;;;5094070;28;20480;-96
2021/04/27 09:41:52;;;;;;;6.13;4.03;;;;;;;;;;5091859;28;20449;-95
2021/04/27 09:44:25;;;;;;;4.33;4.03;;;;;;;;;;5093782;28;20443;-96
2021/04/27 09:47:14;;;;;;;4.43;4.00;;;;;;;;;;5094981;28;20456;-96
2021/04/27 09:52:43;;;;;;;7.10;4.40;;;;;;;;;;5050242;28;20466;-96
2021/04/27 09:55:10;;;;;;;4.40;3.77;;;;;;;;;;5052586;28;20505;-96
2021/04/27 09:57:38;;;;;;;4.50;4.10;;;;;;;;;;5051318;28;20443;-94
2021/04/27 10:00:23;;;;;;;6.17;3.97;;;;;;;;;;5027053;28;20485;-94
2021/04/27 10:02:50;;;;;;;4.20;3.80;;;;;;;;;;5048856;28;20528;-94
2021/04/27 10:05:17;;;;;;;3.73;3.40;;;;;;;;;;5033581;28;20537;-94
2021/04/27 10:07:48;;;;;;;5.03;4.37;;;;;;;;;;5047061;28;20489;-95
2021/04/27 10:10:17;;;;;;;4.77;3.83;;;;;;;;;;5048900;28;20442;-94
2021/04/27 10:12:44;;;;;;;4.20;3.77;;;;;;;;;;5047457;28;20506;-95
2021/04/27 10:15:11;;;;;;;4.73;4.33;;;;;;;;;;5051186;28;20490;-96
2021/04/27 10:17:38;;;;;;;4.13;3.73;;;;;;;;;;5047766;28;20462;-95
2021/04/27 10:20:13;;;;;;;5.37;4.03;;;;;;;;;;5050932;28;20443;-95
2021/04/27 10:22:40;;;;;;;4.10;3.80;;;;;;;;;;5050265;28;20453;-95
2021/04/27 10:25:12;;;;;;;3.80;3.40;;;;;;;;;;5053466;28;20455;-96
2021/04/27 10:27:38;;;;;;;4.23;3.80;;;;;;;;;;5059545;28;20469;-96
2021/04/27 10:30:23;;;;;;;4.73;4.23;;;;;;;;;;5057999;28;20447;-95
2021/04/27 10:33:08;;;;;;;4.73;4.33;;;;;;;;;;5049957;28;20453;-95
2021/04/27 10:35:34;;;;;;;4.27;3.97;;;;;;;;;;5047871;28;20482;-96
2021/04/27 10:38:04;;;;;;;4.10;3.70;;;;;;;;;;5046458;28;20458;-94
2021/04/27 10:40:44;;;;;;;4.70;4.30;;;;;;;;;;5050379;28;20458;-96
2021/04/27 10:43:29;;;;;;;5.33;4.90;;;;;;;;;;5037583;28;20454;-96
2021/04/27 10:48:24;;;;;;;4.70;4.30;;;;;;;;;;5117636;22;20477;-95
2021/04/27 10:50:53;;;;;;;4.30;4.00;;;;;;;;;;5101216;28;20524;-96
2021/04/27 10:53:34;;;;;;;4.00;3.77;;;;;;;;;;5105786;28;20466;-96
2021/04/27 10:56:31;;;;;;;4.70;3.93;;;;;;;;;;5135407;22;20512;-95
2021/04/27 11:01:44;;;;;;;4.07;3.70;;;;;;;;;;5092624;28;20459;-96
2021/04/27 11:04:25;;;;;;;4.27;3.90;;;;;;;;;;5094101;28;20952;-96
2021/04/27 11:07:06;;;;;;;3.87;3.53;;;;;;;;;;5086925;28;20452;-94
2021/04/27 11:09:32;;;;;;;4.00;3.70;;;;;;;;;;5083026;28;20494;-96
2021/04/27 11:12:22;;;;;;;3.70;3.50;;;;;;;;;;5087430;28;20449;-95
2021/04/27 11:14:55;;;;;;;5.50;3.60;;;;;;;;;;5080090;22;20474;-96
2021/04/27 11:17:26;;;;;;;4.43;3.73;;;;;;;;;;5064805;28;21150;-96
2021/04/27 11:19:53;;;;;;;4.17;3.90;;;;;;;;;;5066996;28;20454;-96
2021/04/27 11:24:52;;;;;;;3.80;3.50;;;;;;;;;;5102195;28;21026;-94
2021/04/27 11:27:26;;;;;;;4.17;3.87;;;;;;;;;;5106680;28;20448;-96
2021/04/27 11:30:16;;;;;;;4.30;3.90;;;;;;;;;;5108204;28;20409;-96
2021/04/27 11:32:47;;;;;;;5.10;3.80;;;;;;;;;;5110406;28;20448;-95
2021/04/27 11:35:16;;;;;;;4.43;4.00;;;;;;;;;;5108081;28;20463;-96
2021/04/27 11:37:44;;;;;;;4.43;3.83;;;;;;;;;;5091222;28;20456;-96
2021/04/27 11:40:15;;;;;;;5.83;4.40;;;;;;;;;;5105947;28;20476;-95
2021/04/27 11:42:42;;;;;;;3.97;3.50;;;;;;;;;;5106739;28;20475;-96
2021/04/27 11:45:11;;;;;;;4.60;3.57;;;;;;;;;;5106352;28;20436;-95
2021/04/27 11:47:38;;;;;;;6.20;3.93;;;;;;;;;;5097710;28;20449;-94
2021/04/27 11:50:07;;;;;;;4.33;4.00;;;;;;;;;;5108446;28;20430;-95
2021/04/27 11:52:44;;;;;;;4.33;3.93;;;;;;;;;;5093312;28;20425;-94
2021/04/27 11:55:12;;;;;;;4.67;4.30;;;;;;;;;;5107444;28;20467;-95
2021/04/27 11:57:43;;;;;;;4.00;3.60;;;;;;;;;;5109768;28;20460;-94
2021/04/27 12:00:10;;;;;;;4.23;3.93;;;;;;;;;;5108024;28;20578;-93
2021/04/27 12:02:36;;;;;;;5.20;4.20;;;;;;;;;;5107365;28;20486;-96
2021/04/27 12:05:06;;;;;;;4.50;3.80;;;;;;;;;;5111047;28;20448;-96
2021/04/27 12:07:32;;;;;;;4.50;4.10;;;;;;;;;;5105929;28;20482;-95
2021/04/27 12:09:59;;;;;;;5.63;4.70;;;;;;;;;;5107510;28;20440;-96
2021/04/27 12:12:27;;;;;;;4.83;4.43;;;;;;;;;;5106891;28;20444;-96
2021/04/27 12:14:57;;;;;;;4.43;4.03;;;;;;;;;;5106881;28;20480;-95
2021/04/27 12:17:27;;;;;;;4.33;4.03;;;;;;;;;;5113388;28;20444;-95
2021/04/27 12:20:14;;;;;;;4.67;4.17;;;;;;;;;;5156279;22;20492;-93
2021/04/27 12:22:41;;;;;;;4.33;4.03;;;;;;;;;;5129177;28;20448;-96
2021/04/27 12:25:13;;;;;;;4.57;4.20;;;;;;;;;;5132169;28;20447;-94
2021/04/27 12:27:40;;;;;;;4.30;3.90;;;;;;;;;;5132038;28;20486;-95
2021/04/27 12:30:28;;;;;;;5.40;4.30;;;;;;;;;;5129971;28;20447;-96
2021/04/27 12:33:05;;;;;;;4.53;3.87;;;;;;;;;;5128119;28;20463;-95
2021/04/27 12:35:32;;;;;;;4.57;4.27;;;;;;;;;;5121254;28;20546;-95
2021/04/27 12:38:08;;;;;;;4.60;4.20;;;;;;;;;;5111201;28;20444;-96
2021/04/27 12:40:38;;;;;;;4.07;3.70;;;;;;;;;;5128577;28;20443;-95
2021/04/27 12:43:08;;;;;;;4.87;3.83;;;;;;;;;;5129039;28;20456;-96
2021/04/27 12:45:44;;;;;;;4.33;3.93;;;;;;;;;;5131423;28;20475;-96
2021/04/27 12:48:16;;;;;;;5.30;4.20;;;;;;;;;;5126361;28;20474;-95
2021/04/27 12:51:07;;;;;;;5.37;4.13;;;;;;;;;;5130665;28;20442;-95
2021/04/27 12:53:41;;;;;;;4.07;3.77;;;;;;;;;;5121727;28;20462;-96
2021/04/27 12:56:14;;;;;;;7.03;4.20;;;;;;;;;;5130205;28;20436;-95
2021/04/27 12:58:46;;;;;;;4.67;4.30;;;;;;;;;;5129500;28;20451;-96
2021/04/27 13:01:24;;;;;;;4.67;3.97;;;;;;;;;;5137025;27;20431;-95
2021/04/27 13:03:59;;;;;;;5.10;4.37;;;;;;;;;;5128448;28;20458;-95
2021/04/27 13:06:29;;;;;;;5.20;4.27;;;;;;;;;;5114243;28;20974;-95
2021/04/27 13:09:06;;;;;;;4.20;3.80;;;;;;;;;;5130092;28;20473;-95
2021/04/27 13:11:33;;;;;;;5.87;4.20;;;;;;;;;;5134783;28;20439;-96
2021/04/27 13:14:20;;;;;;;4.40;4.00;;;;;;;;;;5134166;28;20998;-96
2021/04/27 13:16:47;;;;;;;4.30;3.90;;;;;;;;;;5181082;22;20602;-95
2021/04/27 13:19:15;;;;;;;4.70;4.20;;;;;;;;;;5095988;28;20449;-93
2021/04/27 13:21:43;;;;;;;5.23;4.07;;;;;;;;;;5083223;22;21035;-96
2021/04/27 13:24:10;;;;;;;4.60;4.20;;;;;;;;;;5070043;28;20492;-96
2021/04/27 13:26:36;;;;;;;4.10;3.70;;;;;;;;;;5070663;28;20473;-96
2021/04/27 13:29:07;;;;;;;3.67;3.40;;;;;;;;;;5070152;28;20454;-96
2021/04/27 13:31:39;;;;;;;4.20;3.90;;;;;;;;;;5068325;28;20988;-95
2021/04/27 13:34:05;;;;;;;4.37;3.97;;;;;;;;;;5067020;28;20486;-96
2021/04/27 13:36:33;;;;;;;5.10;4.03;;;;;;;;;;5068859;28;20459;-96
2021/04/27 13:38:59;;;;;;;4.53;4.13;;;;;;;;;;5068990;28;20446;-95
2021/04/27 13:41:26;;;;;;;6.40;3.80;;;;;;;;;;5068713;28;20466;-96
2021/04/27 13:43:52;;;;;;;3.47;3.23;;;;;;;;;;5066736;28;20451;-94
2021/04/27 13:46:21;;;;;;;3.73;3.43;;;;;;;;;;5065739;28;20457;-96
2021/04/27 13:48:49;;;;;;;4.63;4.10;;;;;;;;;;5072051;28;20454;-96
2021/04/27 13:51:15;;;;;;;4.27;3.87;;;;;;;;;;5045486;28;20477;-95
2021/04/27 13:53:43;;;;;;;4.10;3.77;;;;;;;;;;5068429;28;20441;-96
2021/04/27 13:56:10;;;;;;;4.47;4.07;;;;;;;;;;5067756;28;20487;-96
2021/04/27 13:58:37;;;;;;;4.27;3.83;;;;;;;;;;5070637;28;20445;-96
2021/04/27 14:01:05;;;;;;;4.37;3.97;;;;;;;;;;5065893;28;20453;-96
2021/04/27 14:03:31;;;;;;;4.87;4.13;;;;;;;;;;5066357;28;20454;-95
2021/04/27 14:05:59;;;;;;;4.07;3.67;;;;;;;;;;5066495;28;20476;-96
2021/04/27 14:08:25;;;;;;;4.33;3.90;;;;;;;;;;5066001;28;20446;-94
2021/04/27 14:10:59;;;;;;;4.20;3.90;;;;;;;;;;5063139;28;20459;-96
2021/04/27 14:13:30;;;;;;;5.80;4.10;;;;;;;;;;5066259;28;20445;-94
2021/04/27 14:16:05;;;;;;;4.47;4.07;;;;;;;;;;5061311;28;20509;-96
2021/04/27 14:18:31;;;;;;;4.30;4.00;;;;;;;;;;5066409;28;20437;-94
2021/04/27 14:20:57;;;;;;;4.40;3.90;;;;;;;;;;5046156;28;20474;-94
2021/04/27 14:23:23;;;;;;;5.10;4.60;;;;;;;;;;5064977;28;20442;-94
2021/04/27 14:25:50;;;;;;;4.27;3.90;;;;;;;;;;5064160;28;20473;-96
2021/04/27 14:28:19;;;;;;;4.30;3.90;;;;;;;;;;5063341;28;20446;-96
2021/04/27 14:30:52;;;;;;;4.30;4.00;;;;;;;;;;5060713;28;20528;-96
2021/04/27 14:33:18;;;;;;;5.93;4.97;;;;;;;;;;5063746;28;20447;-96
2021/04/27 14:35:44;;;;;;;3.87;3.57;;;;;;;;;;5067872;28;20625;-96
2021/04/27 14:38:10;;;;;;;4.27;3.90;;;;;;;;;;5064555;28;20461;-94
2021/04/27 14:40:37;;;;;;;5.33;4.27;;;;;;;;;;5067235;28;20457;-94
2021/04/27 14:43:03;;;;;;;4.60;4.27;;;;;;;;;;5066735;28;20452;-96
2021/04/27 14:45:31;;;;;;;4.53;3.90;;;;;;;;;;5067218;28;20462;-95
2021/04/27 14:47:58;;;;;;;4.80;4.40;;;;;;;;;;5063304;28;20461;-95
2021/04/27 14:50:27;;;;;;;5.00;4.50;;;;;;;;;;5064020;28;20465;-95
2021/04/27 14:52:53;;;;;;;4.10;3.80;;;;;;;;;;5062007;28;20481;-95
2021/04/27 14:55:20;;;;;;;4.40;4.00;;;;;;;;;;5045669;28;20505;-92
2021/04/27 14:57:47;;;;;;;4.90;4.33;;;;;;;;;;5062185;28;20442;-93
2021/04/27 15:00:14;;;;;;;4.87;4.47;;;;;;;;;;5072220;28;21197;-92
2021/04/27 15:02:41;;;;;;;4.67;4.27;;;;;;;;;;5061379;28;20484;-92
2021/04/27 15:05:08;;;;;;;4.50;4.20;;;;;;;;;;5065212;28;20458;-94
2021/04/27 15:07:34;;;;;;;5.00;4.60;;;;;;;;;;5062319;28;20439;-96
2021/04/27 15:10:02;;;;;;;4.87;4.47;;;;;;;;;;5063409;28;20453;-94
2021/04/27 15:12:29;;;;;;;5.33;4.50;;;;;;;;;;5061498;28;20993;-93
2021/04/27 15:14:55;;;;;;;4.53;4.13;;;;;;;;;;5060154;28;20489;-92
2021/04/27 15:17:24;;;;;;;5.17;4.30;;;;;;;;;;5063576;28;20514;-95
2021/04/27 15:19:51;;;;;;;4.73;4.30;;;;;;;;;;5063990;28;20469;-93
2021/04/27 15:22:41;;;;;;;5.10;4.60;;;;;;;;;;5061991;28;20469;-96
2021/04/27 15:25:09;;;;;;;5.60;4.67;;;;;;;;;;5060686;28;20457;-92
2021/04/27 15:27:35;;;;;;;4.93;4.27;;;;;;;;;;5064949;28;20450;-94
2021/04/27 15:30:02;;;;;;;7.67;4.60;;;;;;;;;;5061103;28;20449;-92
2021/04/27 15:32:28;;;;;;;4.83;4.40;;;;;;;;;;5065493;28;20446;-94
2021/04/27 15:34:55;;;;;;;4.87;4.27;;;;;;;;;;5066288;28;20504;-95
2021/04/27 15:37:25;;;;;;;5.17;4.20;;;;;;;;;;5065814;28;20464;-96
2021/04/27 15:39:54;;;;;;;4.83;4.17;;;;;;;;;;5061073;28;20513;-96
2021/04/27 15:42:20;;;;;;;8.17;4.53;;;;;;;;;;5060169;28;20458;-93
2021/04/27 15:44:46;;;;;;;4.57;4.07;;;;;;;;;;5057710;28;20496;-93
2021/04/27 15:47:19;;;;;;;4.70;4.30;;;;;;;;;;5068676;28;20446;-96
2021/04/27 15:49:45;;;;;;;5.30;4.23;;;;;;;;;;5060818;28;20505;-93
2021/04/27 15:52:12;;;;;;;15.23;5.17;;;;;;;;;;5063205;28;20449;-95
2021/04/27 15:54:44;;;;;;;4.63;4.23;;;;;;;;;;5064114;28;20478;-96
2021/04/27 15:57:10;;;;;;;5.37;4.30;;;;;;;;;;5055765;28;20457;-96